Time;durP1;ratioP1;P1;durP2;ratioP2;P2;SDS_P1;SDS_P2;PMS_P1;PMS_P2;Temp;Humidity;BMP_temperature;BMP_pressure;BME280_temperature;BME280_humidity;BME280_pressure;Samples;Min_cycle;Max_cycle;Signal;HPM_P1;HPM_P2
2022/04/24 00:01:25;;;;;;;7.38;6.70;;;7.90;99.90;;;;;;5043567;28;20282;-71
2022/04/24 00:03:51;;;;;;;7.47;6.78;;;7.90;99.90;;;;;;5059890;28;20175;-72
2022/04/24 00:06:16;;;;;;;7.30;6.63;;;7.90;99.90;;;;;;5051095;28;20187;-72
2022/04/24 00:08:42;;;;;;;7.13;6.53;;;7.80;99.90;;;;;;5047650;28;20167;-73
2022/04/24 00:11:08;;;;;;;7.32;6.63;;;7.90;99.90;;;;;;5047642;28;20186;-72
2022/04/24 00:13:38;;;;;;;7.50;6.90;;;7.80;99.90;;;;;;5048926;28;20202;-72
2022/04/24 00:16:06;;;;;;;7.70;7.10;;;7.80;99.90;;;;;;5051231;28;20261;-72
2022/04/24 00:18:32;;;;;;;7.38;6.78;;;7.80;99.90;;;;;;5039685;28;20222;-72
2022/04/24 00:20:57;;;;;;;7.35;6.75;;;7.80;99.90;;;;;;5047748;28;20200;-73
2022/04/24 00:23:23;;;;;;;7.07;6.47;;;7.80;99.90;;;;;;5030366;28;20187;-71
2022/04/24 00:25:49;;;;;;;6.60;6.00;;;7.80;99.90;;;;;;5046070;28;20678;-71
2022/04/24 00:28:14;;;;;;;7.70;6.97;;;7.80;99.90;;;;;;5044912;28;20211;-71
2022/04/24 00:30:40;;;;;;;8.02;7.25;;;7.80;99.90;;;;;;5043739;28;20653;-71
2022/04/24 00:33:05;;;;;;;8.02;7.20;;;7.80;99.90;;;;;;5059724;28;20184;-71
2022/04/24 00:35:31;;;;;;;7.57;6.93;;;7.70;99.90;;;;;;5054968;28;20210;-72
2022/04/24 00:37:57;;;;;;;7.72;7.03;;;7.70;99.90;;;;;;5056536;28;20685;-72
2022/04/24 00:40:23;;;;;;;7.97;7.25;;;7.70;99.90;;;;;;5052318;28;20710;-72
2022/04/24 00:42:49;;;;;;;7.22;6.53;;;7.60;99.90;;;;;;5051017;28;20184;-73
2022/04/24 00:45:15;;;;;;;8.73;7.95;;;7.60;99.90;;;;;;5057264;28;20196;-72
2022/04/24 00:47:44;;;;;;;8.55;7.45;;;7.70;99.90;;;;;;5056401;28;20187;-72
2022/04/24 00:50:10;;;;;;;7.03;6.43;;;7.60;99.90;;;;;;5055273;28;20193;-71
2022/04/24 00:52:37;;;;;;;7.68;6.97;;;7.70;99.90;;;;;;5048003;28;20211;-71
2022/04/24 00:55:03;;;;;;;7.38;6.78;;;7.60;99.90;;;;;;5032238;28;20218;-71
2022/04/24 00:57:29;;;;;;;8.02;7.32;;;7.60;99.90;;;;;;5055001;28;20233;-72
2022/04/24 00:59:54;;;;;;;7.55;6.88;;;7.60;99.90;;;;;;5053480;28;20666;-71
2022/04/24 01:02:20;;;;;;;8.40;7.60;;;7.50;99.90;;;;;;5058526;28;20175;-71
2022/04/24 01:04:45;;;;;;;8.20;7.50;;;7.60;99.90;;;;;;5059024;28;20203;-71
2022/04/24 01:07:11;;;;;;;8.30;7.50;;;7.60;99.90;;;;;;5054593;28;20180;-70
2022/04/24 01:09:37;;;;;;;8.55;7.78;;;7.40;99.90;;;;;;5050184;28;20194;-70
2022/04/24 01:12:04;;;;;;;8.27;7.47;;;7.40;99.90;;;;;;5054743;28;20239;-70
2022/04/24 01:14:30;;;;;;;9.05;8.18;;;7.30;99.90;;;;;;5058596;28;20564;-71
2022/04/24 01:16:56;;;;;;;8.65;7.95;;;7.30;99.90;;;;;;5053391;28;20179;-71
2022/04/24 01:19:24;;;;;;;9.98;8.80;;;7.30;99.90;;;;;;5044940;28;20188;-71
2022/04/24 01:21:50;;;;;;;8.82;8.02;;;7.20;99.90;;;;;;5038906;28;20203;-70
2022/04/24 01:24:21;;;;;;;10.10;9.10;;;7.30;99.90;;;;;;5048136;28;20196;-70
2022/04/24 01:26:47;;;;;;;9.00;8.27;;;7.40;99.90;;;;;;5037640;28;20673;-70
2022/04/24 01:29:14;;;;;;;8.90;8.10;;;7.40;99.90;;;;;;5050762;28;20216;-70
2022/04/24 01:31:40;;;;;;;11.88;10.68;;;7.50;99.90;;;;;;5057231;28;20175;-71
2022/04/24 01:34:06;;;;;;;10.15;9.25;;;7.50;99.90;;;;;;5045975;28;20181;-71
2022/04/24 01:36:32;;;;;;;9.60;8.70;;;7.60;99.90;;;;;;5044307;28;20230;-70
2022/04/24 01:38:58;;;;;;;12.65;9.48;;;7.70;99.90;;;;;;5047060;28;20636;-70
2022/04/24 01:41:23;;;;;;;10.88;9.77;;;7.80;99.90;;;;;;5045306;28;20203;-70
2022/04/24 01:43:50;;;;;;;10.73;9.52;;;7.90;99.90;;;;;;5047227;28;20175;-71
2022/04/24 01:46:16;;;;;;;11.80;10.57;;;7.90;99.90;;;;;;5048640;28;20400;-71
2022/04/24 01:48:42;;;;;;;11.48;10.38;;;7.90;99.90;;;;;;5041266;28;20178;-71
2022/04/24 01:51:09;;;;;;;11.80;10.70;;;8.00;99.90;;;;;;5042250;28;20172;-70
2022/04/24 01:53:35;;;;;;;10.88;9.88;;;8.10;99.90;;;;;;5031998;28;20195;-71
2022/04/24 01:56:05;;;;;;;12.05;10.93;;;8.10;99.90;;;;;;5042154;28;20204;-71
2022/04/24 01:58:32;;;;;;;11.30;10.20;;;8.10;99.90;;;;;;5042216;28;20216;-71
2022/04/24 02:00:58;;;;;;;11.23;10.13;;;8.20;99.90;;;;;;5040218;28;20203;-71
2022/04/24 02:03:25;;;;;;;12.95;11.75;;;8.20;99.90;;;;;;5041167;28;20291;-71
2022/04/24 02:05:51;;;;;;;12.27;11.07;;;8.30;99.90;;;;;;5047309;28;20604;-71
2022/04/24 02:08:17;;;;;;;11.82;10.65;;;8.30;99.90;;;;;;5042088;28;20184;-71
2022/04/24 02:10:42;;;;;;;12.82;11.52;;;8.40;99.90;;;;;;5043240;28;20183;-71
2022/04/24 02:13:08;;;;;;;12.80;11.48;;;8.40;99.90;;;;;;5051829;28;20183;-71
2022/04/24 02:15:34;;;;;;;12.98;11.70;;;8.50;99.90;;;;;;5039719;28;20239;-71
2022/04/24 02:18:00;;;;;;;12.40;11.20;;;8.50;99.90;;;;;;5050053;28;20253;-71
2022/04/24 02:20:28;;;;;;;13.27;11.98;;;8.50;99.90;;;;;;5052070;28;20258;-71
2022/04/24 02:22:56;;;;;;;12.82;11.55;;;8.60;99.90;;;;;;5052217;28;20681;-71
2022/04/24 02:25:21;;;;;;;12.30;11.13;;;8.60;99.90;;;;;;5049588;28;20314;-70
2022/04/24 02:27:47;;;;;;;12.50;11.32;;;8.70;99.90;;;;;;5045661;28;20228;-70
2022/04/24 02:30:13;;;;;;;13.60;12.20;;;8.70;99.90;;;;;;5047609;28;20180;-70
2022/04/24 02:32:39;;;;;;;12.85;11.52;;;8.70;99.90;;;;;;5046377;28;20180;-70
2022/04/24 02:35:05;;;;;;;13.45;12.07;;;8.80;99.90;;;;;;5042096;28;20203;-70
2022/04/24 02:37:32;;;;;;;14.32;12.93;;;8.80;99.90;;;;;;5052647;28;20528;-71
2022/04/24 02:39:58;;;;;;;14.60;13.10;;;8.80;99.90;;;;;;5051102;28;20622;-71
2022/04/24 02:42:24;;;;;;;14.80;13.32;;;8.70;99.90;;;;;;5053274;28;20639;-71
2022/04/24 02:44:50;;;;;;;12.88;11.68;;;8.70;99.90;;;;;;5047945;28;20211;-72
2022/04/24 02:47:16;;;;;;;13.70;12.15;;;8.80;99.90;;;;;;5046282;28;20184;-72
2022/04/24 02:49:41;;;;;;;15.20;13.70;;;8.80;99.90;;;;;;5049398;28;20175;-71
2022/04/24 02:52:07;;;;;;;14.27;12.80;;;8.80;99.90;;;;;;5046472;28;20271;-71
2022/04/24 02:54:33;;;;;;;14.68;13.13;;;8.80;99.90;;;;;;5048001;28;20202;-71
2022/04/24 02:56:59;;;;;;;14.48;12.25;;;8.90;99.90;;;;;;5045395;28;20200;-71
2022/04/24 02:59:25;;;;;;;14.43;12.95;;;8.90;99.90;;;;;;5054552;28;20172;-71
2022/04/24 03:01:52;;;;;;;14.27;12.77;;;8.90;99.90;;;;;;5051554;28;20203;-71
2022/04/24 03:04:19;;;;;;;14.35;12.95;;;8.90;99.90;;;;;;5049963;28;20226;-71
2022/04/24 03:06:45;;;;;;;14.52;13.05;;;9.00;99.90;;;;;;5051200;28;20171;-71
2022/04/24 03:09:11;;;;;;;14.13;12.80;;;9.00;99.90;;;;;;5052982;28;20259;-71
2022/04/24 03:11:36;;;;;;;15.07;13.00;;;9.00;99.90;;;;;;5051075;28;20215;-71
2022/04/24 03:14:02;;;;;;;14.05;12.73;;;9.00;99.90;;;;;;5046539;28;20172;-71
2022/04/24 03:16:27;;;;;;;13.68;12.27;;;9.00;99.90;;;;;;5051697;28;20196;-71
2022/04/24 03:18:53;;;;;;;14.32;12.88;;;9.10;99.90;;;;;;5049424;28;20555;-71
2022/04/24 03:21:19;;;;;;;15.05;13.55;;;9.10;99.90;;;;;;5048388;28;20203;-71
2022/04/24 03:23:44;;;;;;;13.98;12.68;;;9.10;99.90;;;;;;5049992;28;20180;-72
2022/04/24 03:26:13;;;;;;;15.23;13.73;;;9.20;99.90;;;;;;5049108;28;20203;-71
2022/04/24 03:28:40;;;;;;;14.65;13.10;;;9.20;99.90;;;;;;5041558;28;20172;-71
2022/04/24 03:31:05;;;;;;;15.63;14.02;;;9.30;99.90;;;;;;5052028;28;20714;-70
2022/04/24 03:33:31;;;;;;;15.57;13.77;;;9.20;99.90;;;;;;5047960;28;20273;-70
2022/04/24 03:35:56;;;;;;;15.13;13.55;;;9.30;99.90;;;;;;5050910;28;20226;-70
2022/04/24 03:38:22;;;;;;;16.20;14.60;;;9.30;99.90;;;;;;5052869;28;20194;-71
2022/04/24 03:40:48;;;;;;;16.13;14.45;;;9.30;99.90;;;;;;5051176;28;20543;-71
2022/04/24 03:43:13;;;;;;;15.38;13.75;;;9.30;99.90;;;;;;5051683;28;20186;-71
2022/04/24 03:45:39;;;;;;;15.65;14.00;;;9.30;99.90;;;;;;5041433;28;20794;-71
2022/04/24 03:48:05;;;;;;;15.57;14.02;;;9.30;99.90;;;;;;5040868;28;20176;-71
2022/04/24 03:50:31;;;;;;;17.13;15.27;;;9.30;99.90;;;;;;5053929;28;20188;-71
2022/04/24 03:52:56;;;;;;;17.02;15.05;;;9.30;99.90;;;;;;5051276;28;20639;-71
2022/04/24 03:55:22;;;;;;;16.58;14.88;;;9.30;99.90;;;;;;5051781;28;20199;-71
2022/04/24 03:57:48;;;;;;;17.83;16.02;;;9.30;99.90;;;;;;5049232;28;20195;-72
2022/04/24 04:00:14;;;;;;;16.83;15.13;;;9.30;99.90;;;;;;5029931;28;20242;-72
2022/04/24 04:02:44;;;;;;;17.98;15.43;;;9.30;99.90;;;;;;5051941;28;20217;-71
2022/04/24 04:05:10;;;;;;;17.60;15.43;;;9.40;99.90;;;;;;5033652;28;20245;-70
2022/04/24 04:07:36;;;;;;;17.95;15.48;;;9.40;99.90;;;;;;5053000;28;20199;-70
2022/04/24 04:10:02;;;;;;;17.80;16.00;;;9.40;99.90;;;;;;5052777;28;20255;-70
2022/04/24 04:12:27;;;;;;;17.35;15.57;;;9.50;99.90;;;;;;5052541;28;20183;-70
2022/04/24 04:14:53;;;;;;;19.02;16.60;;;9.50;99.90;;;;;;5050461;28;20305;-70
2022/04/24 04:17:19;;;;;;;17.15;15.38;;;9.50;99.90;;;;;;5047759;28;20609;-70
2022/04/24 04:19:44;;;;;;;18.40;16.55;;;9.60;99.90;;;;;;5052525;28;20168;-70
2022/04/24 04:22:10;;;;;;;17.60;15.70;;;9.60;99.90;;;;;;5051408;28;20234;-71
2022/04/24 04:24:36;;;;;;;18.40;16.13;;;9.60;99.90;;;;;;5034455;28;20203;-71
2022/04/24 04:27:02;;;;;;;18.95;16.25;;;9.70;99.90;;;;;;5051102;28;20643;-71
2022/04/24 04:29:27;;;;;;;17.50;15.65;;;9.70;99.90;;;;;;5031862;28;20180;-71
2022/04/24 04:31:53;;;;;;;17.25;15.55;;;9.60;99.90;;;;;;5030363;28;20180;-72
2022/04/24 04:34:19;;;;;;;18.70;16.83;;;9.70;99.90;;;;;;5052606;28;20694;-72
2022/04/24 04:36:45;;;;;;;18.27;16.33;;;9.60;99.90;;;;;;5052944;28;20542;-72
2022/04/24 04:39:10;;;;;;;18.73;16.40;;;9.60;99.90;;;;;;5051338;28;20180;-72
2022/04/24 04:41:36;;;;;;;17.77;15.98;;;9.60;99.90;;;;;;5052275;28;20206;-71
2022/04/24 04:44:02;;;;;;;16.98;15.18;;;9.60;99.90;;;;;;5056314;28;20204;-71
2022/04/24 04:46:27;;;;;;;18.40;16.40;;;9.60;99.90;;;;;;5056044;28;20171;-71
2022/04/24 04:48:53;;;;;;;17.80;15.90;;;9.50;99.90;;;;;;5056134;28;20176;-71
2022/04/24 04:51:18;;;;;;;17.85;15.60;;;9.50;99.90;;;;;;5037786;28;20230;-71
2022/04/24 04:53:44;;;;;;;17.92;16.05;;;9.50;99.90;;;;;;5056922;28;20215;-71
2022/04/24 04:56:10;;;;;;;19.45;15.95;;;9.60;99.90;;;;;;5053115;28;20323;-70
2022/04/24 04:58:35;;;;;;;22.15;16.20;;;9.70;99.90;;;;;;5050162;28;20610;-71
2022/04/24 05:01:01;;;;;;;17.08;15.25;;;9.60;99.90;;;;;;5052937;28;20231;-71
2022/04/24 05:03:27;;;;;;;19.27;15.98;;;9.60;99.90;;;;;;5048038;28;20179;-71
2022/04/24 05:05:53;;;;;;;19.75;16.95;;;9.60;99.90;;;;;;5042929;28;20204;-71
2022/04/24 05:08:18;;;;;;;16.50;14.70;;;9.50;99.90;;;;;;5042553;28;20547;-71
2022/04/24 05:10:44;;;;;;;17.95;15.98;;;9.50;99.90;;;;;;5044375;28;20666;-71
2022/04/24 05:13:10;;;;;;;18.23;15.93;;;9.60;99.90;;;;;;5055883;28;20192;-71
2022/04/24 05:15:35;;;;;;;17.98;16.17;;;9.70;99.90;;;;;;5055293;28;20207;-71
2022/04/24 05:18:01;;;;;;;21.10;16.58;;;9.70;99.90;;;;;;5041370;28;20236;-71
2022/04/24 05:20:27;;;;;;;18.90;16.33;;;9.70;99.90;;;;;;5056057;28;20559;-71
2022/04/24 05:23:08;;;;;;;18.88;16.98;;;9.70;99.90;;;;;;5037513;28;20218;-70
2022/04/24 05:25:35;;;;;;;19.13;17.20;;;9.60;99.90;;;;;;5031787;28;20243;-70
2022/04/24 05:28:02;;;;;;;18.85;16.92;;;9.50;99.90;;;;;;5054530;28;20172;-70
2022/04/24 05:30:28;;;;;;;21.52;17.40;;;9.60;99.90;;;;;;5056290;28;20558;-71
2022/04/24 05:32:54;;;;;;;19.10;16.95;;;9.60;99.90;;;;;;5053705;28;20176;-71
2022/04/24 05:35:20;;;;;;;22.85;17.98;;;9.60;99.90;;;;;;5044818;28;20215;-70
2022/04/24 05:37:47;;;;;;;21.27;18.40;;;9.60;99.90;;;;;;5036932;28;20270;-71
2022/04/24 05:40:14;;;;;;;20.08;16.90;;;9.60;99.90;;;;;;5053080;28;20206;-70
2022/04/24 05:42:52;;;;;;;21.77;18.08;;;9.60;99.90;;;;;;5054736;28;20615;-70
2022/04/24 05:45:22;;;;;;;21.67;18.15;;;9.60;99.90;;;;;;5052808;28;20192;-70
2022/04/24 05:47:49;;;;;;;19.30;16.92;;;9.60;99.90;;;;;;5049688;28;20512;-70
2022/04/24 05:50:15;;;;;;;21.20;17.83;;;9.50;99.90;;;;;;5049479;28;20176;-70
2022/04/24 05:52:41;;;;;;;20.23;18.13;;;9.40;99.90;;;;;;5049697;28;20180;-70
2022/04/24 05:55:08;;;;;;;19.30;17.27;;;9.60;99.90;;;;;;5049094;28;20215;-70
2022/04/24 05:57:35;;;;;;;20.20;17.55;;;9.60;99.90;;;;;;5052446;28;20257;-70
2022/04/24 06:00:00;;;;;;;20.83;17.67;;;9.60;99.90;;;;;;5050014;28;20180;-70
2022/04/24 06:02:26;;;;;;;24.92;19.23;;;9.60;99.90;;;;;;5047901;28;20194;-70
2022/04/24 06:04:54;;;;;;;21.38;19.13;;;9.80;99.90;;;;;;5049619;28;20717;-70
2022/04/24 06:07:20;;;;;;;20.33;18.02;;;9.80;99.90;;;;;;5043449;28;20648;-70
2022/04/24 06:09:45;;;;;;;23.13;19.35;;;9.90;99.90;;;;;;5047129;28;20227;-71
2022/04/24 06:12:11;;;;;;;22.30;19.90;;;9.90;99.90;;;;;;5050034;28;20241;-70
2022/04/24 06:14:36;;;;;;;22.52;19.83;;;10.00;99.90;;;;;;5046996;28;20215;-74
2022/04/24 06:17:03;;;;;;;24.13;20.40;;;10.10;99.90;;;;;;5046733;28;20630;-75
2022/04/24 06:19:29;;;;;;;23.75;20.45;;;10.20;99.90;;;;;;5046741;28;20181;-75
2022/04/24 06:21:55;;;;;;;20.73;18.42;;;10.30;99.90;;;;;;5026172;28;20255;-74
2022/04/24 06:24:20;;;;;;;22.52;20.17;;;10.40;99.90;;;;;;5025767;28;20684;-75
2022/04/24 06:26:46;;;;;;;22.67;19.95;;;10.60;99.90;;;;;;5041513;28;20252;-74
2022/04/24 06:29:13;;;;;;;21.60;19.25;;;10.80;99.90;;;;;;5041594;28;20572;-74
2022/04/24 06:31:39;;;;;;;19.95;17.50;;;11.10;99.90;;;;;;5042906;28;20184;-74
2022/04/24 06:34:05;;;;;;;20.38;18.30;;;11.30;99.90;;;;;;5041994;28;20180;-74
2022/04/24 06:36:31;;;;;;;18.17;16.38;;;11.60;99.90;;;;;;5042783;28;20172;-74
2022/04/24 06:38:56;;;;;;;21.35;16.98;;;11.70;99.90;;;;;;5045698;28;20269;-74
2022/04/24 06:41:22;;;;;;;18.92;17.00;;;11.80;99.90;;;;;;5041914;28;20670;-76
2022/04/24 06:43:48;;;;;;;16.80;15.10;;;11.80;99.90;;;;;;5041120;28;20176;-76
2022/04/24 06:46:13;;;;;;;18.83;15.75;;;11.90;99.90;;;;;;5051899;28;20204;-76
2022/04/24 06:48:39;;;;;;;17.25;15.55;;;12.00;99.90;;;;;;5042910;28;20203;-76
2022/04/24 06:51:04;;;;;;;19.23;17.33;;;12.00;99.90;;;;;;5043286;28;20258;-76
2022/04/24 06:53:30;;;;;;;16.42;14.82;;;12.00;99.90;;;;;;5045782;28;20616;-76
2022/04/24 06:55:56;;;;;;;16.95;15.25;;;11.90;99.90;;;;;;5053816;28;20677;-76
2022/04/24 06:58:24;;;;;;;19.08;17.17;;;11.70;99.90;;;;;;5050635;28;20232;-76
2022/04/24 07:00:50;;;;;;;19.40;17.27;;;11.60;99.90;;;;;;5037800;28;20192;-74
2022/04/24 07:03:24;;;;;;;21.02;18.92;;;11.50;99.90;;;;;;5048780;28;20211;-74
2022/04/24 07:05:53;;;;;;;26.00;20.92;;;11.40;99.90;;;;;;5039350;28;20718;-74
2022/04/24 07:08:19;;;;;;;22.98;19.75;;;11.20;99.90;;;;;;5048310;28;20179;-75
2022/04/24 07:10:45;;;;;;;21.50;19.02;;;11.10;99.90;;;;;;5052723;28;20187;-74
2022/04/24 07:13:11;;;;;;;26.90;22.17;;;10.90;99.90;;;;;;5042713;28;20184;-74
2022/04/24 07:15:38;;;;;;;23.38;20.88;;;10.70;99.90;;;;;;5037906;28;20204;-75
2022/04/24 07:18:05;;;;;;;23.98;20.50;;;10.60;99.90;;;;;;5029879;28;20603;-74
2022/04/24 07:20:31;;;;;;;25.00;22.25;;;10.60;99.90;;;;;;5038542;28;20656;-74
2022/04/24 07:23:00;;;;;;;24.25;21.42;;;10.50;99.90;;;;;;5026324;28;20185;-74
2022/04/24 07:25:27;;;;;;;24.83;21.10;;;10.50;99.90;;;;;;5019149;28;20220;-75
2022/04/24 07:27:53;;;;;;;23.85;20.88;;;10.70;99.90;;;;;;5029205;28;20204;-74
2022/04/24 07:30:21;;;;;;;21.98;19.70;;;11.00;99.90;;;;;;5027273;28;20184;-74
2022/04/24 07:32:53;;;;;;;22.02;19.65;;;11.40;99.90;;;;;;5030281;28;20658;-74
2022/04/24 07:35:21;;;;;;;22.48;20.27;;;12.10;99.90;;;;;;5045263;28;20562;-75
2022/04/24 07:37:47;;;;;;;18.63;16.63;;;12.70;99.90;;;;;;5048347;28;20207;-76
2022/04/24 07:40:16;;;;;;;18.52;16.60;;;13.20;99.90;;;;;;5043341;28;20219;-79
2022/04/24 07:42:52;;;;;;;16.92;15.23;;;13.50;99.90;;;;;;5045509;28;20202;-77
2022/04/24 07:45:24;;;;;;;15.10;13.55;;;13.50;99.90;;;;;;5038115;28;20203;-80
2022/04/24 07:47:51;;;;;;;14.98;13.48;;;13.40;99.90;;;;;;5054097;28;20548;-80
2022/04/24 07:50:19;;;;;;;12.90;11.80;;;13.30;99.90;;;;;;5054196;28;20180;-82
2022/04/24 07:52:47;;;;;;;13.65;12.38;;;13.20;99.90;;;;;;5037058;28;20585;-80
2022/04/24 07:55:15;;;;;;;10.35;9.35;;;12.90;99.90;;;;;;5029835;28;20205;-85
2022/04/24 07:57:41;;;;;;;10.40;9.25;;;12.60;99.90;;;;;;5031084;28;20754;-84
2022/04/24 08:00:10;;;;;;;11.05;10.02;;;12.30;99.90;;;;;;5028993;28;20200;-75
2022/04/24 08:02:57;;;;;;;9.55;8.68;;;12.30;99.90;;;;;;5020769;28;20188;-74
2022/04/24 08:05:34;;;;;;;8.63;7.93;;;12.50;99.90;;;;;;5037128;28;20196;-73
2022/04/24 08:08:01;;;;;;;9.25;8.45;;;12.90;99.90;;;;;;5042891;28;20575;-73
2022/04/24 08:10:29;;;;;;;8.23;7.43;;;13.40;99.90;;;;;;5046607;28;20549;-74
2022/04/24 08:12:55;;;;;;;8.82;7.90;;;14.00;99.90;;;;;;5040969;28;20179;-74
2022/04/24 08:15:21;;;;;;;4.72;4.32;;;14.40;99.90;;;;;;5040101;28;20196;-75
2022/04/24 08:17:46;;;;;;;6.35;5.85;;;14.50;99.90;;;;;;5049175;28;20262;-73
2022/04/24 08:20:14;;;;;;;5.80;5.32;;;14.70;99.90;;;;;;5045285;28;20230;-74
2022/04/24 08:22:46;;;;;;;5.97;5.47;;;14.70;99.90;;;;;;5044750;28;20251;-73
2022/04/24 08:25:14;;;;;;;3.45;3.13;;;14.90;99.90;;;;;;5049048;28;20204;-73
2022/04/24 08:27:40;;;;;;;4.63;4.22;;;15.10;99.90;;;;;;5048503;28;20198;-73
2022/04/24 08:30:08;;;;;;;4.22;3.92;;;14.90;99.90;;;;;;5030736;28;20219;-73
2022/04/24 08:32:35;;;;;;;4.38;4.07;;;14.50;99.90;;;;;;5043429;28;20216;-72
2022/04/24 08:35:01;;;;;;;4.53;4.15;;;14.30;99.90;;;;;;5045469;28;20192;-73
2022/04/24 08:37:28;;;;;;;4.18;3.78;;;14.10;99.90;;;;;;5043776;28;20530;-73
2022/04/24 08:39:55;;;;;;;4.55;4.15;;;13.80;99.90;;;;;;5037164;28;20317;-73
2022/04/24 08:42:23;;;;;;;4.07;3.80;;;13.80;99.90;;;;;;5040303;28;20264;-73
2022/04/24 08:44:50;;;;;;;4.03;3.80;;;14.10;99.90;;;;;;5027042;28;20578;-73
2022/04/24 08:47:17;;;;;;;3.70;3.40;;;14.70;99.90;;;;;;5042549;28;20176;-73
2022/04/24 08:49:43;;;;;;;3.60;3.40;;;15.20;99.90;;;;;;5047916;28;20645;-74
2022/04/24 08:52:10;;;;;;;2.80;2.60;;;15.80;99.90;;;;;;5035962;28;20667;-75
2022/04/24 08:54:41;;;;;;;2.67;2.47;;;16.10;99.90;;;;;;5046104;28;20329;-74
2022/04/24 08:57:08;;;;;;;1.55;1.45;;;16.20;99.90;;;;;;5044623;28;20192;-75
2022/04/24 08:59:35;;;;;;;2.17;2.08;;;16.60;99.90;;;;;;5047325;28;20187;-75
2022/04/24 09:02:09;;;;;;;2.50;2.30;;;16.90;99.90;;;;;;5042261;28;20220;-74
2022/04/24 09:04:35;;;;;;;2.00;1.90;;;16.90;99.90;;;;;;5047548;28;20593;-74
2022/04/24 09:07:04;;;;;;;1.83;1.70;;;17.10;99.90;;;;;;5030709;28;20542;-74
2022/04/24 09:09:32;;;;;;;1.25;1.25;;;17.20;99.90;;;;;;5043486;28;20230;-74
2022/04/24 09:12:12;;;;;;;1.27;1.27;;;17.20;99.90;;;;;;5046275;28;20177;-74
2022/04/24 09:14:38;;;;;;;1.60;1.50;;;17.10;99.90;;;;;;5048194;28;20256;-74
2022/04/24 09:17:41;;;;;;;1.48;1.38;;;17.30;99.90;;;;;;5028643;28;20272;-74
2022/04/24 09:20:18;;;;;;;2.10;1.50;;;18.40;99.90;;;;;;5040984;28;20188;-74
2022/04/24 09:22:45;;;;;;;1.25;1.20;;;19.30;99.90;;;;;;5045190;28;20537;-75
2022/04/24 09:25:12;;;;;;;1.33;1.33;;;20.00;99.90;;;;;;5041974;28;20203;-77
2022/04/24 09:27:38;;;;;;;1.33;1.30;;;19.80;99.90;;;;;;5040888;28;20176;-76
2022/04/24 09:30:09;;;;;;;1.40;1.38;;;19.40;99.90;;;;;;5040782;28;20192;-76
2022/04/24 09:32:57;;;;;;;0.95;0.95;;;18.80;99.90;;;;;;5049072;28;20724;-76
2022/04/24 09:35:32;;;;;;;1.08;0.70;;;18.50;99.90;;;;;;5043957;28;20204;-76
2022/04/24 09:38:14;;;;;;;0.95;0.70;;;18.50;99.90;;;;;;5052439;28;20183;-76
2022/04/24 09:40:45;;;;;;;1.00;0.98;;;18.70;99.90;;;;;;5050402;28;20234;-75
2022/04/24 09:43:11;;;;;;;0.60;0.60;;;18.80;99.90;;;;;;5054196;28;20187;-75
2022/04/24 09:45:42;;;;;;;0.93;0.93;;;19.50;99.30;;;;;;5042536;28;20253;-75
2022/04/24 09:48:16;;;;;;;0.52;0.52;;;20.30;96.60;;;;;;5044642;28;20714;-75
2022/04/24 09:50:42;;;;;;;0.93;0.93;;;21.00;95.90;;;;;;5048260;28;20182;-75
2022/04/24 09:53:16;;;;;;;0.98;0.98;;;21.40;94.10;;;;;;5044524;28;20217;-75
2022/04/24 09:55:43;;;;;;;0.60;0.60;;;22.10;91.60;;;;;;5049944;28;20305;-73
2022/04/24 09:58:10;;;;;;;0.80;0.80;;;21.80;89.00;;;;;;5048590;28;20198;-74
2022/04/24 10:00:36;;;;;;;0.73;0.73;;;20.70;89.60;;;;;;5051777;28;20294;-75
2022/04/24 10:03:02;;;;;;;0.70;0.70;;;20.60;90.00;;;;;;5032033;28;20176;-74
2022/04/24 10:05:31;;;;;;;0.85;0.85;;;20.20;91.70;;;;;;5054691;28;20200;-74
2022/04/24 10:07:58;;;;;;;2.13;0.98;;;20.20;92.90;;;;;;5047519;28;20181;-74
2022/04/24 10:10:24;;;;;;;0.50;0.50;;;20.40;91.00;;;;;;5052084;28;20219;-75
2022/04/24 10:12:53;;;;;;;0.98;0.80;;;20.60;89.60;;;;;;5058958;28;20199;-74
2022/04/24 10:15:21;;;;;;;0.60;0.60;;;20.10;90.10;;;;;;5038093;28;20239;-74
2022/04/24 10:18:14;;;;;;;0.55;0.55;;;19.50;90.70;;;;;;5049991;28;20173;-74
2022/04/24 10:20:50;;;;;;;1.25;1.15;;;18.80;90.90;;;;;;5054044;28;20191;-74
2022/04/24 10:23:31;;;;;;;0.70;0.70;;;18.50;92.00;;;;;;5060589;28;20178;-74
2022/04/24 10:25:57;;;;;;;3.47;3.25;;;18.70;93.00;;;;;;5049541;28;20234;-74
2022/04/24 10:28:27;;;;;;;11.27;10.57;;;18.70;93.20;;;;;;5054514;28;20180;-74
2022/04/24 10:30:58;;;;;;;0.57;0.57;;;19.30;93.40;;;;;;5052938;28;20177;-74
2022/04/24 10:33:28;;;;;;;0.95;0.95;;;20.00;89.10;;;;;;5061260;28;20667;-75
2022/04/24 10:35:59;;;;;;;0.55;0.40;;;20.10;91.10;;;;;;5048430;28;20227;-74
2022/04/24 10:38:28;;;;;;;0.47;0.45;;;22.60;83.70;;;;;;5032093;28;20630;-75
2022/04/24 10:41:05;;;;;;;0.45;0.45;;;24.20;73.60;;;;;;5045484;28;20207;-75
2022/04/24 10:43:40;;;;;;;0.55;0.55;;;23.90;75.50;;;;;;5049985;28;20199;-75
2022/04/24 10:46:26;;;;;;;2.75;0.20;;;23.60;75.10;;;;;;5042598;28;20199;-75
2022/04/24 10:48:53;;;;;;;1.23;0.40;;;22.70;71.10;;;;;;5053700;28;20176;-75
2022/04/24 10:51:32;;;;;;;0.60;0.60;;;21.70;72.60;;;;;;5049932;28;20187;-75
2022/04/24 10:53:59;;;;;;;0.45;0.45;;;20.50;78.20;;;;;;5049548;28;20193;-75
2022/04/24 10:56:26;;;;;;;0.73;0.73;;;19.90;79.50;;;;;;5053366;28;20280;-74
2022/04/24 10:58:51;;;;;;;0.32;0.32;;;19.60;81.90;;;;;;5046462;28;20222;-75
2022/04/24 11:01:18;;;;;;;0.50;0.50;;;20.10;79.00;;;;;;5045364;28;20235;-74
2022/04/24 11:03:46;;;;;;;0.20;0.20;;;21.60;74.60;;;;;;5052883;28;20587;-75
2022/04/24 11:06:19;;;;;;;0.30;0.30;;;22.80;70.90;;;;;;5043279;28;20192;-74
2022/04/24 11:08:45;;;;;;;0.38;0.30;;;23.50;67.50;;;;;;5043867;28;20181;-75
2022/04/24 11:11:14;;;;;;;0.40;0.40;;;24.40;67.50;;;;;;5038699;28;20196;-75
2022/04/24 11:13:41;;;;;;;0.13;0.13;;;26.60;61.30;;;;;;5044621;28;20639;-76
2022/04/24 11:16:06;;;;;;;0.30;0.30;;;27.90;55.60;;;;;;5044557;28;20262;-76
2022/04/24 11:18:32;;;;;;;0.30;0.30;;;27.20;54.00;;;;;;5032005;28;20180;-75
2022/04/24 11:21:06;;;;;;;0.45;0.45;;;25.60;56.70;;;;;;5037505;28;20207;-75
2022/04/24 11:23:40;;;;;;;0.82;0.35;;;24.40;58.50;;;;;;5047375;28;20264;-78
2022/04/24 11:26:12;;;;;;;0.38;0.38;;;25.20;58.80;;;;;;5044683;28;20326;-76
2022/04/24 11:28:42;;;;;;;0.30;0.30;;;25.80;57.50;;;;;;5045847;28;20207;-76
2022/04/24 11:31:18;;;;;;;0.68;0.68;;;27.30;54.30;;;;;;5041821;28;20206;-75
2022/04/24 11:33:55;;;;;;;0.52;0.40;;;26.80;54.60;;;;;;5042574;28;20195;-76
2022/04/24 11:36:22;;;;;;;0.20;0.20;;;25.60;54.80;;;;;;5041017;28;20188;-76
2022/04/24 11:38:50;;;;;;;0.25;0.20;;;24.40;56.70;;;;;;5049348;28;20190;-76
2022/04/24 11:41:16;;;;;;;1.27;0.28;;;22.70;59.00;;;;;;5043322;28;20200;-76
2022/04/24 11:43:42;;;;;;;0.55;0.55;;;21.90;61.90;;;;;;5047978;28;20168;-78
2022/04/24 11:51:50;;;;;;;0.80;0.80;;;21.70;64.00;;;;;;5015938;28;20187;-77
2022/04/24 11:54:16;;;;;;;0.60;0.60;;;21.30;62.50;;;;;;5050594;28;20203;-77
2022/04/24 11:56:42;;;;;;;0.70;0.70;;;20.50;63.80;;;;;;5036554;28;20179;-78
2022/04/24 11:59:35;;;;;;;0.57;0.57;;;20.10;66.20;;;;;;5046148;28;20664;-78
2022/04/24 12:02:00;;;;;;;0.38;0.38;;;19.70;69.70;;;;;;5029628;28;20251;-79
2022/04/24 12:04:31;;;;;;;0.30;0.30;;;19.70;70.10;;;;;;5024994;28;20220;-77
2022/04/24 12:07:07;;;;;;;0.30;0.30;;;20.70;68.30;;;;;;5014503;28;20187;-78
2022/04/24 12:09:34;;;;;;;2.70;0.77;;;21.40;65.80;;;;;;5024817;28;20177;-77
2022/04/24 12:12:06;;;;;;;0.47;0.30;;;21.60;66.10;;;;;;5026072;28;20177;-78
2022/04/24 12:14:32;;;;;;;0.30;0.30;;;22.00;65.10;;;;;;5041736;28;20226;-78
2022/04/24 12:17:08;;;;;;;0.75;0.20;;;22.80;63.80;;;;;;5027662;28;20173;-78
2022/04/24 12:19:34;;;;;;;0.25;0.20;;;23.90;61.00;;;;;;5033592;28;20196;-78
2022/04/24 12:22:11;;;;;;;0.55;0.55;;;24.30;59.00;;;;;;5035837;28;20675;-77
2022/04/24 12:24:47;;;;;;;1.08;0.45;;;24.30;59.70;;;;;;5026676;28;20210;-77
2022/04/24 12:27:15;;;;;;;0.30;0.30;;;24.10;60.10;;;;;;5031934;28;20263;-78
2022/04/24 12:29:46;;;;;;;0.20;0.20;;;24.30;59.60;;;;;;5030671;28;20172;-78
2022/04/24 12:32:12;;;;;;;0.38;0.30;;;24.80;59.10;;;;;;5031023;28;20196;-78
2022/04/24 12:34:40;;;;;;;0.40;0.38;;;25.40;56.50;;;;;;5032122;28;20200;-78
2022/04/24 12:37:05;;;;;;;0.20;0.20;;;25.80;55.40;;;;;;5036828;28;20184;-78
2022/04/24 12:39:32;;;;;;;0.00;0.00;;;25.50;54.60;;;;;;5004014;28;20189;-78
2022/04/24 12:41:59;;;;;;;0.20;0.20;;;25.50;54.10;;;;;;5024373;28;20687;-78
2022/04/24 12:44:24;;;;;;;0.30;0.30;;;25.40;54.20;;;;;;5012465;28;20751;-78
2022/04/24 12:46:50;;;;;;;0.32;0.32;;;24.80;54.80;;;;;;5026156;28;20184;-77
2022/04/24 12:49:29;;;;;;;0.30;0.30;;;24.30;54.90;;;;;;5031194;28;20183;-78